Time;durP1;ratioP1;P1;durP2;ratioP2;P2;SDS_P1;SDS_P2;PMS_P1;PMS_P2;Temp;Humidity;BMP_temperature;BMP_pressure;BME280_temperature;BME280_humidity;BME280_pressure;Samples;Min_cycle;Max_cycle;Signal;HPM_P1;HPM_P2
2023/03/26 00:02:00;;;;;;;7.07;6.77;;;20.10;59.70;;;;;;4993277;28;20482;-58
2023/03/26 00:04:27;;;;;;;6.53;6.40;;;20.10;59.70;;;;;;4993340;28;20489;-58
2023/03/26 00:06:54;;;;;;;6.47;6.13;;;20.10;59.70;;;;;;4993308;28;20846;-55
2023/03/26 00:09:21;;;;;;;7.60;7.40;;;20.10;59.70;;;;;;4993272;28;20454;-57
2023/03/26 00:11:48;;;;;;;7.13;6.97;;;20.10;59.70;;;;;;4993154;28;20457;-58
2023/03/26 00:14:16;;;;;;;6.80;6.60;;;20.10;59.70;;;;;;4993018;28;20832;-59
2023/03/26 00:16:44;;;;;;;7.40;7.20;;;20.10;59.70;;;;;;4993150;28;20520;-57
2023/03/26 00:19:12;;;;;;;7.13;7.03;;;20.10;59.70;;;;;;4992695;28;20545;-55
2023/03/26 00:21:40;;;;;;;7.47;7.20;;;20.10;59.60;;;;;;4992969;28;20478;-59
2023/03/26 00:24:09;;;;;;;7.93;7.63;;;20.10;59.70;;;;;;4993012;28;20471;-55
2023/03/26 00:26:37;;;;;;;7.00;6.80;;;20.10;59.60;;;;;;4992833;28;20486;-57
2023/03/26 00:29:05;;;;;;;7.00;6.80;;;20.00;59.50;;;;;;4992716;28;20459;-58
2023/03/26 00:31:33;;;;;;;7.33;7.13;;;20.00;59.60;;;;;;4992764;28;20450;-56
2023/03/26 00:34:02;;;;;;;6.90;6.70;;;20.00;59.60;;;;;;4991812;28;20594;-56
2023/03/26 00:36:31;;;;;;;7.63;7.23;;;20.00;59.60;;;;;;4992775;28;20939;-56
2023/03/26 00:38:57;;;;;;;6.80;6.60;;;20.00;59.70;;;;;;4992461;28;20447;-55
2023/03/26 00:41:29;;;;;;;6.90;6.70;;;20.00;59.80;;;;;;4992643;28;20534;-55
2023/03/26 00:43:58;;;;;;;7.00;6.90;;;20.00;59.70;;;;;;4992530;28;20598;-57
2023/03/26 00:46:27;;;;;;;7.80;7.50;;;20.00;59.80;;;;;;4992488;28;20482;-54
2023/03/26 00:48:57;;;;;;;7.17;6.97;;;19.90;59.70;;;;;;4992546;28;20481;-56
2023/03/26 00:51:24;;;;;;;8.07;7.50;;;19.90;59.70;;;;;;4992700;28;20848;-57
2023/03/26 00:53:53;;;;;;;6.93;6.73;;;19.90;59.60;;;;;;4992355;28;20521;-57
2023/03/26 00:56:20;;;;;;;7.20;7.10;;;19.90;59.60;;;;;;4992497;28;20529;-55
2023/03/26 00:58:48;;;;;;;7.10;6.90;;;19.90;59.60;;;;;;4992172;28;20534;-58
2023/03/26 01:01:17;;;;;;;8.10;7.77;;;19.90;59.60;;;;;;4992373;28;20450;-57
2023/03/26 01:03:45;;;;;;;7.47;7.27;;;19.90;59.50;;;;;;4992249;28;20483;-53
2023/03/26 01:06:18;;;;;;;7.33;7.20;;;19.90;59.60;;;;;;4992318;28;20820;-57
2023/03/26 01:08:48;;;;;;;7.17;6.97;;;19.90;59.50;;;;;;4992064;28;20478;-57
2023/03/26 01:11:19;;;;;;;7.77;7.57;;;19.90;59.50;;;;;;4992346;28;20475;-55
2023/03/26 01:13:48;;;;;;;7.73;7.47;;;19.90;59.50;;;;;;4992134;28;20541;-55
2023/03/26 01:16:20;;;;;;;8.17;7.87;;;19.90;59.50;;;;;;4992273;28;20446;-57
2023/03/26 01:18:48;;;;;;;7.60;7.30;;;19.90;59.50;;;;;;4992050;28;20482;-54
2023/03/26 01:21:21;;;;;;;8.17;7.87;;;19.90;59.40;;;;;;4991521;28;20884;-56
2023/03/26 01:23:58;;;;;;;7.63;7.33;;;19.80;59.40;;;;;;4991338;28;20533;-57
2023/03/26 01:26:37;;;;;;;6.83;6.63;;;19.80;59.40;;;;;;4991614;28;20442;-58
2023/03/26 01:29:07;;;;;;;7.80;7.60;;;19.80;59.40;;;;;;4992050;28;20453;-55
2023/03/26 01:31:44;;;;;;;8.03;7.73;;;19.80;59.30;;;;;;4991236;28;20454;-54
2023/03/26 01:34:18;;;;;;;7.80;7.50;;;19.80;59.40;;;;;;4991106;28;20556;-55
2023/03/26 01:36:54;;;;;;;7.40;7.20;;;19.80;59.40;;;;;;4992169;28;20478;-57
2023/03/26 01:39:29;;;;;;;7.50;7.30;;;19.80;59.40;;;;;;4992102;28;20827;-56
2023/03/26 01:42:01;;;;;;;7.90;7.60;;;19.80;59.40;;;;;;4992033;28;20446;-53
2023/03/26 01:44:34;;;;;;;7.43;7.23;;;19.80;59.40;;;;;;4993851;28;20470;-56
2023/03/26 01:47:01;;;;;;;8.40;8.00;;;19.70;59.30;;;;;;4995699;28;20451;-56
2023/03/26 01:49:29;;;;;;;8.57;8.37;;;19.70;59.30;;;;;;4995740;28;20486;-54
2023/03/26 01:51:57;;;;;;;7.40;7.20;;;19.70;59.40;;;;;;4995659;28;21015;-56
2023/03/26 01:54:29;;;;;;;7.93;7.60;;;19.70;59.40;;;;;;4995599;28;20482;-53
2023/03/26 01:57:09;;;;;;;7.80;7.50;;;19.70;59.40;;;;;;4995853;28;20443;-57
2023/03/26 01:59:53;;;;;;;7.00;6.70;;;19.70;59.40;;;;;;4995555;28;20458;-52
2023/03/26 02:02:27;;;;;;;7.40;7.20;;;19.70;59.50;;;;;;4996932;28;20914;-60
2023/03/26 02:04:58;;;;;;;8.03;7.73;;;19.70;59.50;;;;;;5007004;28;20438;-59
2023/03/26 02:07:33;;;;;;;6.90;6.80;;;19.70;59.50;;;;;;5007367;28;20932;-60
2023/03/26 02:10:09;;;;;;;6.20;6.10;;;19.70;59.60;;;;;;5007033;28;20521;-59
2023/03/26 02:12:37;;;;;;;7.40;7.10;;;19.70;59.60;;;;;;5006133;28;20864;-58
2023/03/26 02:15:05;;;;;;;7.40;7.10;;;19.70;59.70;;;;;;5005150;28;21069;-59
2023/03/26 02:17:32;;;;;;;7.20;7.00;;;19.70;59.70;;;;;;5005683;28;20454;-56
2023/03/26 02:20:04;;;;;;;6.80;6.70;;;19.70;59.70;;;;;;5004811;28;20474;-57
2023/03/26 02:22:31;;;;;;;7.43;7.23;;;19.60;59.70;;;;;;5004483;28;20463;-58
2023/03/26 02:24:58;;;;;;;7.40;7.20;;;19.60;60.30;;;;;;5004840;28;20451;-59
2023/03/26 02:27:26;;;;;;;7.23;6.93;;;19.60;59.70;;;;;;5003809;28;20471;-57
2023/03/26 02:29:53;;;;;;;7.30;6.90;;;19.60;59.80;;;;;;5003767;28;20470;-59
2023/03/26 02:32:20;;;;;;;6.73;6.63;;;19.60;59.80;;;;;;5003898;28;20502;-58
2023/03/26 02:34:50;;;;;;;7.33;7.23;;;19.60;59.80;;;;;;5003692;28;20514;-58
2023/03/26 02:37:17;;;;;;;7.10;6.90;;;19.60;59.90;;;;;;5003152;28;20978;-59
2023/03/26 02:39:44;;;;;;;7.30;6.90;;;19.60;59.80;;;;;;5003673;28;20450;-59
2023/03/26 02:42:11;;;;;;;7.07;6.87;;;19.60;59.80;;;;;;5002818;28;20494;-59
2023/03/26 02:44:39;;;;;;;7.23;7.03;;;19.60;60.50;;;;;;5002416;28;20479;-59
2023/03/26 02:47:06;;;;;;;7.60;7.33;;;19.60;59.90;;;;;;5002316;28;20995;-58
2023/03/26 02:49:33;;;;;;;6.73;6.63;;;19.60;60.00;;;;;;5001940;28;20470;-59
2023/03/26 02:52:05;;;;;;;7.53;7.23;;;19.60;60.00;;;;;;5001540;28;20457;-59
2023/03/26 02:54:33;;;;;;;6.90;6.70;;;19.50;59.90;;;;;;5001153;28;20478;-58
2023/03/26 02:57:00;;;;;;;6.77;6.57;;;19.60;60.00;;;;;;4999911;28;20459;-59
2023/03/26 02:59:27;;;;;;;7.27;7.17;;;19.60;60.10;;;;;;5001095;28;20482;-59
2023/03/26 03:01:55;;;;;;;7.23;6.80;;;19.50;60.00;;;;;;5002299;28;20478;-58
2023/03/26 03:04:22;;;;;;;7.40;7.00;;;19.50;60.00;;;;;;5000938;28;20578;-59
2023/03/26 03:06:56;;;;;;;7.60;7.40;;;19.50;60.00;;;;;;5001033;28;20446;-59
2023/03/26 03:09:24;;;;;;;7.97;7.77;;;19.50;60.10;;;;;;5001143;28;20516;-58
2023/03/26 03:11:51;;;;;;;7.80;7.50;;;19.50;60.90;;;;;;5000229;28;20447;-58
2023/03/26 03:14:19;;;;;;;7.80;7.60;;;19.50;60.00;;;;;;4999096;28;21030;-58
2023/03/26 03:16:46;;;;;;;8.23;7.93;;;19.50;60.10;;;;;;4999007;28;20454;-58
2023/03/26 03:19:14;;;;;;;8.30;8.00;;;19.50;60.10;;;;;;4998749;28;20485;-59
2023/03/26 03:21:42;;;;;;;7.43;7.30;;;19.50;60.10;;;;;;4998657;28;20553;-59
2023/03/26 03:24:10;;;;;;;8.40;8.00;;;19.50;60.10;;;;;;4997597;28;20899;-58
2023/03/26 03:26:37;;;;;;;5.90;5.80;;;19.50;60.10;;;;;;4998789;28;20450;-59
2023/03/26 03:29:04;;;;;;;6.37;6.17;;;19.50;60.10;;;;;;4997923;28;20479;-58
2023/03/26 03:31:31;;;;;;;6.97;6.77;;;19.50;60.10;;;;;;4998894;28;20478;-59
2023/03/26 03:33:58;;;;;;;6.70;6.50;;;19.50;60.20;;;;;;4998366;28;20477;-58
2023/03/26 03:36:29;;;;;;;6.57;6.40;;;19.50;60.30;;;;;;4998209;28;20467;-56
2023/03/26 03:39:01;;;;;;;6.90;6.80;;;19.50;60.20;;;;;;4997970;28;20451;-58
2023/03/26 03:41:28;;;;;;;6.30;6.00;;;19.50;60.30;;;;;;4997959;28;21007;-57
2023/03/26 03:43:55;;;;;;;6.73;6.53;;;19.40;60.10;;;;;;4997628;28;21049;-58
2023/03/26 03:46:21;;;;;;;6.57;6.37;;;19.40;60.10;;;;;;4997868;28;20478;-57
2023/03/26 03:48:48;;;;;;;4.70;4.60;;;19.40;60.20;;;;;;4996962;28;20478;-58
2023/03/26 03:51:15;;;;;;;5.57;5.30;;;19.40;60.20;;;;;;4998090;28;20474;-57
2023/03/26 03:53:45;;;;;;;5.30;5.10;;;19.40;60.20;;;;;;4997566;28;20491;-59
2023/03/26 03:56:13;;;;;;;5.33;4.90;;;19.40;60.30;;;;;;4997263;28;20487;-58
2023/03/26 03:58:41;;;;;;;5.50;5.30;;;19.40;60.20;;;;;;4997555;28;20458;-57
2023/03/26 04:01:08;;;;;;;5.80;5.40;;;19.40;60.20;;;;;;4998303;28;20450;-56
2023/03/26 04:03:37;;;;;;;5.63;5.43;;;19.40;60.30;;;;;;4998868;28;20502;-56
2023/03/26 04:06:05;;;;;;;4.90;4.70;;;19.40;60.30;;;;;;4998396;28;20991;-57
2023/03/26 04:08:33;;;;;;;5.27;5.10;;;19.30;60.20;;;;;;4997365;28;20443;-57
2023/03/26 04:11:02;;;;;;;5.13;4.93;;;19.40;60.30;;;;;;4998312;28;20808;-58
2023/03/26 04:13:29;;;;;;;4.90;4.57;;;19.40;60.30;;;;;;4998422;28;20498;-58
2023/03/26 04:15:56;;;;;;;5.00;5.00;;;19.40;60.20;;;;;;4998384;28;20526;-58
2023/03/26 04:18:25;;;;;;;5.23;5.13;;;19.40;60.70;;;;;;4997642;28;20447;-56
2023/03/26 04:20:54;;;;;;;4.73;4.63;;;19.40;60.30;;;;;;4997845;28;20451;-57
2023/03/26 04:23:22;;;;;;;4.90;4.80;;;19.30;60.20;;;;;;5001149;28;20471;-59
2023/03/26 04:25:52;;;;;;;4.90;4.70;;;19.30;60.20;;;;;;5002501;28;20953;-59
2023/03/26 04:28:29;;;;;;;5.03;4.90;;;19.30;60.20;;;;;;5004330;28;20817;-59
2023/03/26 04:30:59;;;;;;;6.30;6.13;;;19.30;60.20;;;;;;5003229;28;20450;-59
2023/03/26 04:33:27;;;;;;;5.50;5.30;;;19.30;60.20;;;;;;5003242;28;20525;-59
2023/03/26 04:35:55;;;;;;;5.33;5.03;;;19.40;60.20;;;;;;5003014;28;20510;-59
2023/03/26 04:38:22;;;;;;;4.50;4.40;;;19.30;60.10;;;;;;5002861;28;20458;-59
2023/03/26 04:40:49;;;;;;;5.60;5.33;;;19.30;60.20;;;;;;5003118;28;20455;-59
2023/03/26 04:43:17;;;;;;;5.00;4.80;;;19.30;60.30;;;;;;5001806;28;20474;-58
2023/03/26 04:45:46;;;;;;;4.77;4.67;;;19.30;60.30;;;;;;5003030;28;20441;-59
2023/03/26 04:48:13;;;;;;;4.90;4.80;;;19.30;60.30;;;;;;5002072;28;20461;-59
2023/03/26 04:50:42;;;;;;;5.50;5.30;;;19.30;60.30;;;;;;5001112;28;20940;-59
2023/03/26 04:53:12;;;;;;;4.47;4.37;;;19.30;60.30;;;;;;5001404;28;20502;-59
2023/03/26 04:55:43;;;;;;;5.20;5.10;;;19.30;60.30;;;;;;5000725;28;20490;-59
2023/03/26 04:58:12;;;;;;;4.97;4.87;;;19.30;60.30;;;;;;5001195;28;20494;-59
2023/03/26 05:00:40;;;;;;;4.40;4.30;;;19.30;60.30;;;;;;5001867;28;20450;-58
2023/03/26 05:03:10;;;;;;;5.63;5.37;;;19.30;60.30;;;;;;5002314;28;21073;-57
2023/03/26 05:05:37;;;;;;;4.60;4.50;;;19.30;60.40;;;;;;5001536;28;20447;-57
2023/03/26 05:08:04;;;;;;;4.87;4.70;;;19.30;60.30;;;;;;5000661;28;20474;-55
2023/03/26 05:10:31;;;;;;;5.10;4.77;;;19.30;60.30;;;;;;5000559;28;20471;-58
2023/03/26 05:12:58;;;;;;;5.17;4.97;;;19.30;60.40;;;;;;5000769;28;20509;-59
2023/03/26 05:15:25;;;;;;;4.57;4.47;;;19.30;60.50;;;;;;4999847;28;20513;-56
2023/03/26 05:17:54;;;;;;;4.50;4.30;;;19.20;60.40;;;;;;4999109;28;20497;-58
2023/03/26 05:20:25;;;;;;;4.47;4.37;;;19.20;60.40;;;;;;5002897;28;20454;-59
2023/03/26 05:22:52;;;;;;;5.33;5.23;;;19.20;60.40;;;;;;5002423;28;20506;-58
2023/03/26 05:25:19;;;;;;;4.67;4.57;;;19.30;60.50;;;;;;5003159;28;20478;-59
2023/03/26 05:27:46;;;;;;;4.97;4.67;;;19.20;60.50;;;;;;5001991;28;20486;-59
2023/03/26 05:30:16;;;;;;;5.30;5.10;;;19.20;60.50;;;;;;5002009;28;20481;-58
2023/03/26 05:32:43;;;;;;;5.80;5.37;;;19.20;60.50;;;;;;4982405;28;20901;-58
2023/03/26 05:35:11;;;;;;;4.60;4.50;;;19.20;60.50;;;;;;4981620;28;20523;-59
2023/03/26 05:37:40;;;;;;;4.80;4.60;;;19.20;60.50;;;;;;4980864;28;20479;-58
2023/03/26 05:40:10;;;;;;;4.40;4.30;;;19.20;60.50;;;;;;4994738;28;20493;-57
2023/03/26 05:42:38;;;;;;;4.77;4.67;;;19.20;60.50;;;;;;5000429;28;20495;-59
2023/03/26 05:45:06;;;;;;;5.90;5.37;;;19.20;60.50;;;;;;5000989;28;20443;-56
2023/03/26 05:47:34;;;;;;;5.13;4.93;;;19.20;60.60;;;;;;5000840;28;20833;-58
2023/03/26 05:50:01;;;;;;;5.47;5.37;;;19.20;60.50;;;;;;5000753;28;20860;-56
2023/03/26 05:52:28;;;;;;;5.10;5.00;;;19.20;60.50;;;;;;4999991;28;20505;-57
2023/03/26 05:54:56;;;;;;;5.40;5.20;;;19.20;60.50;;;;;;4999777;28;21015;-59
2023/03/26 05:57:27;;;;;;;5.20;4.90;;;19.20;60.60;;;;;;4999803;28;20538;-58
2023/03/26 05:59:54;;;;;;;4.90;4.80;;;19.20;60.60;;;;;;5000456;28;20461;-57
2023/03/26 06:02:21;;;;;;;5.93;5.43;;;19.20;60.60;;;;;;5000769;28;20872;-58
2023/03/26 06:04:47;;;;;;;5.40;5.30;;;19.20;60.60;;;;;;5001460;28;20493;-58
2023/03/26 06:07:15;;;;;;;5.40;5.30;;;19.20;60.60;;;;;;4999298;28;20466;-57
2023/03/26 06:09:42;;;;;;;5.80;5.60;;;19.20;60.60;;;;;;4999131;28;20460;-57
2023/03/26 06:12:11;;;;;;;6.10;5.80;;;19.20;60.70;;;;;;4999737;28;20457;-57
2023/03/26 06:14:38;;;;;;;5.50;5.30;;;19.20;60.70;;;;;;5000058;28;20489;-58
2023/03/26 06:17:05;;;;;;;4.50;4.40;;;19.20;60.80;;;;;;4999548;28;20501;-57
2023/03/26 06:19:32;;;;;;;5.20;5.10;;;19.20;60.80;;;;;;4999633;28;20482;-57
2023/03/26 06:21:59;;;;;;;6.33;6.03;;;19.10;60.70;;;;;;4999831;28;20477;-58
2023/03/26 06:24:26;;;;;;;5.50;5.23;;;19.10;60.70;;;;;;5000083;28;20475;-57
2023/03/26 06:26:53;;;;;;;5.90;5.60;;;19.20;60.80;;;;;;4998821;28;20475;-57
2023/03/26 06:29:21;;;;;;;6.57;6.37;;;19.10;60.70;;;;;;4998746;28;20872;-57
2023/03/26 06:31:48;;;;;;;5.50;5.40;;;19.10;60.70;;;;;;4998247;28;20508;-58
2023/03/26 06:34:15;;;;;;;5.47;5.27;;;19.10;60.80;;;;;;4999789;28;20461;-58
2023/03/26 06:36:42;;;;;;;5.10;5.00;;;19.10;60.80;;;;;;4999390;28;20529;-57
2023/03/26 06:39:09;;;;;;;5.30;5.20;;;19.10;60.80;;;;;;4998970;28;20961;-58
2023/03/26 06:41:35;;;;;;;5.60;5.50;;;19.10;60.80;;;;;;5000524;28;20501;-59
2023/03/26 06:44:02;;;;;;;5.70;5.50;;;19.10;60.90;;;;;;4999799;28;20466;-56
2023/03/26 06:46:31;;;;;;;6.50;5.90;;;19.10;60.90;;;;;;5000315;28;20478;-56
2023/03/26 06:48:58;;;;;;;5.80;5.70;;;19.10;61.00;;;;;;5000720;28;20470;-58
2023/03/26 06:51:25;;;;;;;6.40;6.20;;;19.10;61.00;;;;;;5003780;28;20454;-59
2023/03/26 06:53:52;;;;;;;6.40;6.23;;;19.10;61.00;;;;;;5005483;28;20529;-59
2023/03/26 06:56:19;;;;;;;7.07;6.87;;;19.10;61.10;;;;;;5006377;28;20923;-60
2023/03/26 06:58:45;;;;;;;7.43;7.23;;;19.10;61.10;;;;;;5006000;28;20447;-59
2023/03/26 07:01:12;;;;;;;7.50;7.30;;;19.10;61.20;;;;;;5004601;28;20451;-59
2023/03/26 07:03:41;;;;;;;7.60;7.40;;;19.10;61.20;;;;;;5004566;28;20786;-56
2023/03/26 07:06:08;;;;;;;8.00;7.80;;;19.10;61.10;;;;;;5004376;28;20475;-59
2023/03/26 07:08:35;;;;;;;7.83;7.53;;;19.10;61.20;;;;;;5003515;28;20482;-58
2023/03/26 07:11:02;;;;;;;7.20;7.00;;;19.10;61.20;;;;;;5002835;28;20451;-58
2023/03/26 07:13:29;;;;;;;7.17;6.80;;;19.10;61.30;;;;;;5002765;28;20558;-59
2023/03/26 07:15:55;;;;;;;7.60;7.30;;;19.10;61.30;;;;;;5001675;28;20518;-58
2023/03/26 07:18:22;;;;;;;7.07;6.77;;;19.10;61.30;;;;;;5001277;28;20482;-59
2023/03/26 07:20:51;;;;;;;6.90;6.70;;;19.10;61.40;;;;;;5001136;28;20471;-58
2023/03/26 07:23:20;;;;;;;7.33;7.13;;;19.10;61.40;;;;;;5002864;28;20498;-59
2023/03/26 07:25:48;;;;;;;7.00;6.80;;;19.10;61.40;;;;;;5001774;28;20453;-59
2023/03/26 07:28:24;;;;;;;6.03;5.93;;;19.00;61.30;;;;;;5000164;28;20446;-59
2023/03/26 07:31:00;;;;;;;7.30;7.10;;;19.00;61.40;;;;;;5001581;28;20446;-57
2023/03/26 07:33:34;;;;;;;6.57;6.37;;;19.00;61.40;;;;;;4999251;28;20501;-56
2023/03/26 07:36:13;;;;;;;6.53;6.27;;;19.00;61.50;;;;;;4999261;28;20475;-57
2023/03/26 07:38:51;;;;;;;6.60;6.40;;;19.10;61.50;;;;;;4998684;28;20478;-57
2023/03/26 07:41:25;;;;;;;6.60;6.50;;;19.20;61.40;;;;;;4995054;28;21001;-56
2023/03/26 07:44:12;;;;;;;7.07;6.77;;;19.30;61.40;;;;;;4996417;28;20477;-57
2023/03/26 07:46:40;;;;;;;7.40;7.00;;;19.30;61.10;;;;;;4996581;28;20470;-56
2023/03/26 07:49:09;;;;;;;6.93;6.80;;;19.40;60.90;;;;;;4996521;28;20455;-55
2023/03/26 07:51:54;;;;;;;6.90;6.80;;;19.40;60.90;;;;;;4997103;28;20761;-55
2023/03/26 07:54:21;;;;;;;7.90;7.60;;;19.50;63.00;;;;;;4995414;28;20482;-56
2023/03/26 07:56:54;;;;;;;7.80;7.60;;;19.60;63.60;;;;;;4997684;28;20517;-54
2023/03/26 07:59:29;;;;;;;7.50;7.30;;;19.60;63.60;;;;;;5001892;28;20474;-54
2023/03/26 08:02:17;;;;;;;8.87;8.57;;;19.70;63.30;;;;;;5002131;28;20533;-52
2023/03/26 08:04:57;;;;;;;7.67;7.50;;;19.80;63.00;;;;;;5037086;22;20532;-53
2023/03/26 08:07:36;;;;;;;7.30;7.20;;;19.80;62.90;;;;;;5014515;28;20477;-53
2023/03/26 08:10:15;;;;;;;7.25;7.05;;;19.80;62.80;;;;;;5014967;28;20443;-54
2023/03/26 08:12:52;;;;;;;7.83;7.53;;;19.90;63.00;;;;;;5014046;28;20570;-60
2023/03/26 08:15:28;;;;;;;7.23;7.03;;;19.90;63.20;;;;;;5014575;28;20481;-58
2023/03/26 08:18:01;;;;;;;7.13;6.93;;;19.90;63.00;;;;;;5014561;28;20445;-57
2023/03/26 08:20:40;;;;;;;6.80;6.70;;;20.00;62.80;;;;;;5014621;28;20461;-58
2023/03/26 08:23:16;;;;;;;7.70;7.50;;;20.10;62.80;;;;;;5013453;28;20474;-52
2023/03/26 08:25:53;;;;;;;7.40;7.13;;;20.10;62.70;;;;;;5014198;28;20533;-54
2023/03/26 08:28:31;;;;;;;7.53;7.10;;;20.10;62.70;;;;;;5014097;28;20899;-57
2023/03/26 08:31:01;;;;;;;6.87;6.70;;;20.20;62.50;;;;;;5014452;28;20452;-60
2023/03/26 08:33:29;;;;;;;6.60;6.40;;;20.20;61.90;;;;;;5013644;28;20536;-58
2023/03/26 08:35:56;;;;;;;7.23;7.03;;;20.20;62.90;;;;;;5012503;28;20565;-60
2023/03/26 08:38:24;;;;;;;8.07;7.87;;;20.30;63.80;;;;;;5013428;28;20446;-58
2023/03/26 08:41:28;;;;;;;7.40;7.20;;;20.40;64.50;;;;;;5014444;28;20926;-57
2023/03/26 08:44:31;;;;;;;8.60;8.20;;;20.50;64.50;;;;;;5013240;28;20595;-56
2023/03/26 08:47:27;;;;;;;8.30;8.10;;;20.60;64.20;;;;;;5014377;28;20966;-60
2023/03/26 08:50:30;;;;;;;7.70;7.50;;;20.60;64.00;;;;;;5013937;28;20454;-56
2023/03/26 08:53:36;;;;;;;7.70;7.50;;;20.70;64.30;;;;;;5011734;28;20556;-60
2023/03/26 08:56:12;;;;;;;8.23;7.83;;;20.80;64.60;;;;;;4994883;28;20518;-61
2023/03/26 08:59:14;;;;;;;8.13;7.93;;;20.90;64.80;;;;;;4995424;28;20481;-61
2023/03/26 09:02:11;;;;;;;7.40;7.30;;;20.90;64.30;;;;;;4982624;28;20449;-56
2023/03/26 09:05:29;;;;;;;7.10;7.00;;;21.00;64.30;;;;;;4995053;28;21011;-59
2023/03/26 09:08:24;;;;;;;7.70;7.50;;;21.10;63.90;;;;;;4972751;28;20448;-61
2023/03/26 09:11:10;;;;;;;7.70;7.50;;;21.20;64.20;;;;;;4973269;28;20542;-60
2023/03/26 09:14:17;;;;;;;7.00;6.80;;;21.30;64.20;;;;;;5005816;28;20500;-58
2023/03/26 09:17:14;;;;;;;7.50;7.20;;;21.30;63.90;;;;;;5005256;28;20900;-60
2023/03/26 09:20:00;;;;;;;7.53;7.10;;;21.40;63.30;;;;;;5014762;28;20969;-59
2023/03/26 09:23:12;;;;;;;8.07;7.80;;;21.50;63.00;;;;;;5015429;28;20477;-63
2023/03/26 09:26:01;;;;;;;6.50;6.40;;;21.50;63.20;;;;;;4980030;28;20477;-59
2023/03/26 09:29:06;;;;;;;7.20;7.00;;;21.60;63.00;;;;;;5015165;28;20481;-60
2023/03/26 09:32:09;;;;;;;7.17;6.87;;;21.60;62.90;;;;;;5013502;28;20477;-51
2023/03/26 09:34:55;;;;;;;8.60;8.33;;;21.70;62.90;;;;;;5012305;28;20490;-62
2023/03/26 09:37:28;;;;;;;7.63;7.43;;;21.70;61.80;;;;;;5013002;28;20513;-62
2023/03/26 09:40:14;;;;;;;8.20;7.80;;;21.70;61.50;;;;;;5013846;28;20446;-64
2023/03/26 09:42:45;;;;;;;7.80;7.60;;;21.70;61.10;;;;;;5013847;28;20450;-59
2023/03/26 09:45:56;;;;;;;7.93;7.73;;;21.70;60.30;;;;;;5014077;28;20955;-60
2023/03/26 09:48:58;;;;;;;7.67;7.47;;;21.80;59.90;;;;;;5011152;28;20462;-56
2023/03/26 09:51:50;;;;;;;8.27;7.67;;;21.80;60.80;;;;;;5010014;28;20490;-58
2023/03/26 09:54:58;;;;;;;7.10;6.90;;;21.80;60.50;;;;;;5013227;28;20516;-56
2023/03/26 09:57:41;;;;;;;6.97;6.77;;;21.80;61.20;;;;;;5012843;28;20905;-63
2023/03/26 10:00:27;;;;;;;8.83;8.47;;;21.90;61.10;;;;;;5013934;28;20593;-63
2023/03/26 10:03:13;;;;;;;7.10;6.90;;;21.80;60.50;;;;;;5014574;28;20481;-62
2023/03/26 10:05:51;;;;;;;7.60;7.30;;;21.80;60.50;;;;;;5016346;28;20449;-63
2023/03/26 10:08:49;;;;;;;7.77;7.47;;;21.80;60.30;;;;;;5019217;28;20469;-63
2023/03/26 10:11:22;;;;;;;8.10;7.80;;;21.90;60.20;;;;;;5018004;28;20442;-63
2023/03/26 10:14:02;;;;;;;8.03;7.83;;;21.90;60.20;;;;;;5018734;28;20888;-63
2023/03/26 10:16:41;;;;;;;7.80;7.60;;;21.90;60.50;;;;;;5018053;28;20854;-63
2023/03/26 10:19:30;;;;;;;8.03;7.73;;;21.90;60.90;;;;;;5017261;28;20446;-54
2023/03/26 10:22:08;;;;;;;8.40;8.10;;;22.00;64.60;;;;;;5018224;28;20446;-57
2023/03/26 10:24:51;;;;;;;7.37;7.27;;;22.00;65.00;;;;;;5015804;28;20838;-58
2023/03/26 10:27:36;;;;;;;7.73;7.43;;;22.00;64.30;;;;;;5017502;28;20482;-61
2023/03/26 10:30:31;;;;;;;8.70;8.20;;;22.10;66.00;;;;;;5017781;28;20481;-62
2023/03/26 10:33:07;;;;;;;9.17;8.57;;;22.10;66.00;;;;;;5017631;28;20497;-57
2023/03/26 10:35:47;;;;;;;7.77;7.37;;;22.20;65.90;;;;;;5016259;28;20504;-62
2023/03/26 10:38:23;;;;;;;8.07;7.70;;;22.20;65.90;;;;;;5016351;28;20485;-63
2023/03/26 10:41:04;;;;;;;7.60;7.37;;;22.20;66.00;;;;;;5017437;28;20485;-62
2023/03/26 10:44:18;;;;;;;7.90;7.60;;;22.20;65.80;;;;;;5017867;28;20465;-62
2023/03/26 10:47:27;;;;;;;9.30;8.70;;;22.20;66.00;;;;;;5013393;28;20533;-52
2023/03/26 10:50:26;;;;;;;10.43;10.00;;;22.30;66.90;;;;;;4996304;28;20533;-62
2023/03/26 10:52:56;;;;;;;9.07;8.70;;;22.30;69.50;;;;;;4962054;28;20475;-60
2023/03/26 10:55:28;;;;;;;9.57;9.07;;;22.40;70.50;;;;;;5011722;28;20477;-61
2023/03/26 10:57:58;;;;;;;9.50;9.10;;;22.30;69.90;;;;;;5019974;28;20886;-64
2023/03/26 11:00:27;;;;;;;9.33;8.93;;;22.40;70.50;;;;;;5019994;28;20445;-64
2023/03/26 11:03:17;;;;;;;10.47;9.97;;;22.40;70.10;;;;;;5019759;28;20456;-63
2023/03/26 11:05:54;;;;;;;10.10;9.50;;;22.50;70.20;;;;;;5023487;28;20450;-58
2023/03/26 11:08:29;;;;;;;8.50;8.20;;;22.60;69.60;;;;;;5027285;28;20823;-62
2023/03/26 11:11:03;;;;;;;9.57;9.17;;;22.50;69.30;;;;;;5018159;28;20445;-60
2023/03/26 11:13:46;;;;;;;9.37;8.97;;;22.60;69.30;;;;;;5018707;28;20498;-60
2023/03/26 11:16:18;;;;;;;9.80;9.13;;;22.60;69.10;;;;;;4997814;28;20893;-62
2023/03/26 11:18:51;;;;;;;9.27;8.87;;;22.60;69.70;;;;;;4997273;28;20482;-61
2023/03/26 11:21:28;;;;;;;8.20;8.00;;;22.60;68.80;;;;;;4998094;28;20953;-63
2023/03/26 11:24:10;;;;;;;9.20;8.80;;;22.60;68.90;;;;;;5002296;28;20987;-64
2023/03/26 11:26:49;;;;;;;9.70;9.20;;;22.70;69.10;;;;;;5015818;28;20482;-58
2023/03/26 11:29:31;;;;;;;9.33;9.03;;;22.70;69.40;;;;;;5015390;28;20864;-61
2023/03/26 11:32:04;;;;;;;9.37;9.07;;;22.70;69.00;;;;;;5015769;28;20481;-63
2023/03/26 11:34:37;;;;;;;9.60;9.13;;;22.80;69.70;;;;;;5015553;28;20489;-60
2023/03/26 11:37:14;;;;;;;9.23;8.93;;;22.80;69.50;;;;;;5015242;28;21063;-59
2023/03/26 11:39:48;;;;;;;9.30;8.90;;;22.90;68.90;;;;;;5014349;28;20956;-57
2023/03/26 11:42:18;;;;;;;8.30;8.10;;;22.90;69.00;;;;;;5013772;28;21107;-59
2023/03/26 11:44:52;;;;;;;7.97;7.77;;;22.90;69.50;;;;;;5013555;28;20512;-52
2023/03/26 11:47:28;;;;;;;7.55;7.25;;;22.90;68.30;;;;;;5014294;28;20474;-57
2023/03/26 11:49:58;;;;;;;8.30;7.90;;;22.90;68.30;;;;;;5013578;28;20209;-58
2023/03/26 11:52:27;;;;;;;8.27;8.07;;;23.00;67.20;;;;;;5014673;28;20478;-55
2023/03/26 11:54:57;;;;;;;8.13;7.93;;;23.00;67.10;;;;;;5012713;28;20462;-56
2023/03/26 11:57:29;;;;;;;7.40;7.20;;;23.00;69.10;;;;;;5013769;28;20521;-56
2023/03/26 12:00:03;;;;;;;9.57;9.17;;;23.00;67.50;;;;;;5014310;28;20851;-61
2023/03/26 12:02:37;;;;;;;8.00;7.80;;;23.00;66.30;;;;;;5014861;28;20961;-56
2023/03/26 12:05:16;;;;;;;8.17;7.97;;;23.00;66.20;;;;;;5013831;28;20536;-54
2023/03/26 12:07:52;;;;;;;8.40;8.20;;;23.10;66.10;;;;;;5014166;28;20798;-57
2023/03/26 12:10:25;;;;;;;7.90;7.70;;;23.10;67.20;;;;;;5013184;28;20469;-58
2023/03/26 12:12:54;;;;;;;7.80;7.60;;;23.00;64.90;;;;;;5013465;28;20802;-58
2023/03/26 12:15:22;;;;;;;7.97;7.77;;;22.90;64.70;;;;;;5012738;28;20442;-55
2023/03/26 12:17:52;;;;;;;7.83;7.53;;;22.70;64.90;;;;;;5012835;28;20485;-56
2023/03/26 12:20:31;;;;;;;7.80;7.60;;;22.70;65.20;;;;;;5013078;28;20512;-58
2023/03/26 12:23:01;;;;;;;8.50;8.03;;;22.60;65.30;;;;;;5012928;28;21014;-58
2023/03/26 12:25:30;;;;;;;7.63;7.43;;;22.50;65.40;;;;;;5013292;28;20612;-57
2023/03/26 12:28:01;;;;;;;7.53;7.23;;;22.50;65.70;;;;;;5012977;28;20593;-58
2023/03/26 12:30:32;;;;;;;7.90;7.70;;;22.40;65.90;;;;;;5012840;28;20857;-59
2023/03/26 12:33:02;;;;;;;7.53;7.33;;;22.30;66.00;;;;;;5012507;28;20512;-57
2023/03/26 12:35:33;;;;;;;7.20;7.00;;;22.30;66.30;;;;;;5012037;28;20461;-57
2023/03/26 12:38:21;;;;;;;7.40;7.30;;;22.20;66.40;;;;;;5012151;28;20485;-58
2023/03/26 12:40:49;;;;;;;7.30;7.10;;;22.20;66.50;;;;;;5012559;28;20734;-56
2023/03/26 12:43:27;;;;;;;8.00;7.80;;;22.10;66.60;;;;;;5012166;28;20466;-58
2023/03/26 12:45:57;;;;;;;7.77;7.57;;;22.10;66.80;;;;;;5012129;28;20492;-57
2023/03/26 12:48:25;;;;;;;7.63;7.43;;;22.10;67.00;;;;;;5012080;28;20944;-55
2023/03/26 12:51:08;;;;;;;7.83;7.63;;;22.00;66.90;;;;;;5012411;28;20549;-58
2023/03/26 12:53:55;;;;;;;8.93;8.63;;;22.00;67.00;;;;;;5011949;28;20542;-57
2023/03/26 12:56:34;;;;;;;7.73;7.53;;;22.00;67.20;;;;;;5012172;28;20446;-57
2023/03/26 12:59:20;;;;;;;7.37;7.20;;;21.90;67.10;;;;;;5011890;28;20765;-58
2023/03/26 13:01:55;;;;;;;7.20;7.00;;;21.90;67.30;;;;;;5012143;28;20477;-57
2023/03/26 13:04:42;;;;;;;7.70;7.50;;;21.90;67.40;;;;;;5011579;28;20508;-58
2023/03/26 13:07:19;;;;;;;7.30;7.20;;;21.80;67.40;;;;;;5012001;28;20466;-58
2023/03/26 13:10:05;;;;;;;8.30;8.10;;;21.90;67.60;;;;;;5011917;28;20520;-59
2023/03/26 13:12:39;;;;;;;6.77;6.63;;;21.90;67.60;;;;;;5011775;28;20442;-60
2023/03/26 13:15:17;;;;;;;7.27;7.07;;;22.00;67.40;;;;;;5012004;28;20504;-60
2023/03/26 13:17:50;;;;;;;6.37;6.27;;;22.00;67.10;;;;;;5011692;28;20505;-58
2023/03/26 13:20:25;;;;;;;7.00;6.80;;;22.00;66.70;;;;;;5012020;28;21047;-58